sensor_id;sensor_type;location;lat;lon;timestamp;P1;durP1;ratioP1;P2;durP2;ratioP2
3795;SDS011;1913;50.660;7.834;2023-04-29T00:00:04;21.83;;;15.20;;
3795;SDS011;1913;50.660;7.834;2023-04-29T00:02:31;24.00;;;15.70;;
3795;SDS011;1913;50.660;7.834;2023-04-29T00:04:57;23.27;;;16.53;;
3795;SDS011;1913;50.660;7.834;2023-04-29T00:07:22;26.20;;;17.50;;
3795;SDS011;1913;50.660;7.834;2023-04-29T00:09:48;26.23;;;18.30;;
3795;SDS011;1913;50.660;7.834;2023-04-29T00:12:13;28.87;;;18.90;;
3795;SDS011;1913;50.660;7.834;2023-04-29T00:14:39;28.00;;;19.17;;
3795;SDS011;1913;50.660;7.834;2023-04-29T00:17:05;28.43;;;18.80;;
3795;SDS011;1913;50.660;7.834;2023-04-29T00:19:30;33.70;;;19.27;;
3795;SDS011;1913;50.660;7.834;2023-04-29T00:21:55;25.70;;;18.00;;
3795;SDS011;1913;50.660;7.834;2023-04-29T00:24:21;29.90;;;19.70;;
3795;SDS011;1913;50.660;7.834;2023-04-29T00:26:46;35.23;;;20.90;;
3795;SDS011;1913;50.660;7.834;2023-04-29T00:29:12;32.10;;;21.03;;
3795;SDS011;1913;50.660;7.834;2023-04-29T00:31:38;30.97;;;20.53;;
3795;SDS011;1913;50.660;7.834;2023-04-29T00:34:03;27.43;;;18.40;;
3795;SDS011;1913;50.660;7.834;2023-04-29T00:36:29;28.60;;;18.87;;
3795;SDS011;1913;50.660;7.834;2023-04-29T00:38:55;26.00;;;18.40;;
3795;SDS011;1913;50.660;7.834;2023-04-29T00:41:21;27.80;;;18.70;;
3795;SDS011;1913;50.660;7.834;2023-04-29T00:43:47;29.93;;;19.70;;
3795;SDS011;1913;50.660;7.834;2023-04-29T00:46:13;30.27;;;19.97;;
3795;SDS011;1913;50.660;7.834;2023-04-29T00:48:38;31.67;;;19.97;;
3795;SDS011;1913;50.660;7.834;2023-04-29T00:51:05;36.50;;;20.60;;
3795;SDS011;1913;50.660;7.834;2023-04-29T00:53:32;33.80;;;19.60;;
3795;SDS011;1913;50.660;7.834;2023-04-29T00:55:58;33.80;;;19.00;;
3795;SDS011;1913;50.660;7.834;2023-04-29T00:58:27;30.67;;;17.37;;
3795;SDS011;1913;50.660;7.834;2023-04-29T01:01:00;31.33;;;18.83;;
3795;SDS011;1913;50.660;7.834;2023-04-29T01:03:28;33.80;;;18.67;;
3795;SDS011;1913;50.660;7.834;2023-04-29T01:06:31;36.03;;;21.03;;
3795;SDS011;1913;50.660;7.834;2023-04-29T01:11:22;38.23;;;22.77;;
3795;SDS011;1913;50.660;7.834;2023-04-29T01:13:53;36.10;;;22.40;;
3795;SDS011;1913;50.660;7.834;2023-04-29T01:16:31;42.93;;;24.57;;
3795;SDS011;1913;50.660;7.834;2023-04-29T01:19:04;43.73;;;25.30;;
3795;SDS011;1913;50.660;7.834;2023-04-29T01:21:50;44.03;;;26.00;;
3795;SDS011;1913;50.660;7.834;2023-04-29T01:24:16;52.80;;;29.07;;
3795;SDS011;1913;50.660;7.834;2023-04-29T01:26:43;52.00;;;28.90;;
3795;SDS011;1913;50.660;7.834;2023-04-29T01:32:04;56.17;;;30.37;;
3795;SDS011;1913;50.660;7.834;2023-04-29T01:37:47;59.53;;;29.30;;
3795;SDS011;1913;50.660;7.834;2023-04-29T01:40:25;54.37;;;29.57;;
3795;SDS011;1913;50.660;7.834;2023-04-29T01:42:59;48.73;;;27.17;;
3795;SDS011;1913;50.660;7.834;2023-04-29T01:45:26;49.50;;;27.47;;
3795;SDS011;1913;50.660;7.834;2023-04-29T01:47:53;49.10;;;26.90;;
3795;SDS011;1913;50.660;7.834;2023-04-29T01:50:20;46.53;;;25.20;;
3795;SDS011;1913;50.660;7.834;2023-04-29T01:52:45;40.17;;;23.63;;
3795;SDS011;1913;50.660;7.834;2023-04-29T01:55:11;50.20;;;22.80;;
3795;SDS011;1913;50.660;7.834;2023-04-29T01:57:36;45.40;;;23.57;;
3795;SDS011;1913;50.660;7.834;2023-04-29T02:00:02;36.63;;;22.50;;
3795;SDS011;1913;50.660;7.834;2023-04-29T02:02:29;42.73;;;23.27;;
3795;SDS011;1913;50.660;7.834;2023-04-29T02:04:54;40.87;;;22.40;;
3795;SDS011;1913;50.660;7.834;2023-04-29T02:07:20;48.70;;;24.03;;
3795;SDS011;1913;50.660;7.834;2023-04-29T02:09:45;48.83;;;25.17;;
3795;SDS011;1913;50.660;7.834;2023-04-29T02:12:11;51.23;;;25.90;;
3795;SDS011;1913;50.660;7.834;2023-04-29T02:14:36;47.10;;;23.63;;
3795;SDS011;1913;50.660;7.834;2023-04-29T02:17:02;49.57;;;25.73;;
3795;SDS011;1913;50.660;7.834;2023-04-29T02:19:27;55.90;;;25.00;;
3795;SDS011;1913;50.660;7.834;2023-04-29T02:21:53;52.50;;;25.80;;
3795;SDS011;1913;50.660;7.834;2023-04-29T02:24:18;47.80;;;24.67;;
3795;SDS011;1913;50.660;7.834;2023-04-29T02:26:43;53.10;;;27.30;;
3795;SDS011;1913;50.660;7.834;2023-04-29T02:29:09;46.90;;;25.37;;
3795;SDS011;1913;50.660;7.834;2023-04-29T02:31:34;53.63;;;25.13;;
3795;SDS011;1913;50.660;7.834;2023-04-29T02:34:00;49.50;;;25.90;;
3795;SDS011;1913;50.660;7.834;2023-04-29T02:36:25;51.97;;;24.70;;
3795;SDS011;1913;50.660;7.834;2023-04-29T02:38:51;50.83;;;25.17;;
3795;SDS011;1913;50.660;7.834;2023-04-29T02:41:19;47.77;;;25.60;;
3795;SDS011;1913;50.660;7.834;2023-04-29T02:43:45;52.40;;;26.87;;
3795;SDS011;1913;50.660;7.834;2023-04-29T02:46:11;52.93;;;25.67;;
3795;SDS011;1913;50.660;7.834;2023-04-29T02:48:36;51.67;;;26.93;;
3795;SDS011;1913;50.660;7.834;2023-04-29T02:51:02;54.60;;;27.47;;
3795;SDS011;1913;50.660;7.834;2023-04-29T02:53:28;59.30;;;26.53;;
3795;SDS011;1913;50.660;7.834;2023-04-29T02:55:53;56.13;;;27.20;;
3795;SDS011;1913;50.660;7.834;2023-04-29T02:58:19;53.90;;;28.40;;
3795;SDS011;1913;50.660;7.834;2023-04-29T03:00:45;54.97;;;27.07;;
3795;SDS011;1913;50.660;7.834;2023-04-29T03:03:10;54.10;;;27.00;;
3795;SDS011;1913;50.660;7.834;2023-04-29T03:05:35;51.33;;;25.53;;
3795;SDS011;1913;50.660;7.834;2023-04-29T03:08:01;50.70;;;25.33;;
3795;SDS011;1913;50.660;7.834;2023-04-29T03:10:28;46.70;;;24.33;;
3795;SDS011;1913;50.660;7.834;2023-04-29T03:12:53;49.37;;;24.90;;
3795;SDS011;1913;50.660;7.834;2023-04-29T03:15:19;46.50;;;23.97;;
3795;SDS011;1913;50.660;7.834;2023-04-29T03:17:44;50.40;;;25.47;;
3795;SDS011;1913;50.660;7.834;2023-04-29T03:20:10;43.77;;;24.10;;
3795;SDS011;1913;50.660;7.834;2023-04-29T03:22:36;49.90;;;23.90;;
3795;SDS011;1913;50.660;7.834;2023-04-29T03:25:02;49.70;;;25.20;;
3795;SDS011;1913;50.660;7.834;2023-04-29T03:27:28;48.07;;;22.63;;
3795;SDS011;1913;50.660;7.834;2023-04-29T03:29:53;42.43;;;22.37;;
3795;SDS011;1913;50.660;7.834;2023-04-29T03:32:19;44.90;;;23.50;;
3795;SDS011;1913;50.660;7.834;2023-04-29T03:34:44;46.40;;;22.97;;
3795;SDS011;1913;50.660;7.834;2023-04-29T03:37:10;43.50;;;22.27;;
3795;SDS011;1913;50.660;7.834;2023-04-29T03:39:35;46.00;;;22.20;;
3795;SDS011;1913;50.660;7.834;2023-04-29T03:42:01;46.43;;;21.53;;
3795;SDS011;1913;50.660;7.834;2023-04-29T03:44:26;46.03;;;22.97;;
3795;SDS011;1913;50.660;7.834;2023-04-29T03:46:53;50.73;;;24.87;;
3795;SDS011;1913;50.660;7.834;2023-04-29T03:49:18;45.00;;;23.30;;
3795;SDS011;1913;50.660;7.834;2023-04-29T03:51:44;49.03;;;23.70;;
3795;SDS011;1913;50.660;7.834;2023-04-29T03:54:10;47.67;;;24.60;;
3795;SDS011;1913;50.660;7.834;2023-04-29T03:56:36;48.00;;;25.63;;
3795;SDS011;1913;50.660;7.834;2023-04-29T03:59:01;58.00;;;26.70;;
3795;SDS011;1913;50.660;7.834;2023-04-29T04:01:27;55.00;;;25.73;;
3795;SDS011;1913;50.660;7.834;2023-04-29T04:03:52;54.70;;;25.07;;
3795;SDS011;1913;50.660;7.834;2023-04-29T04:06:18;54.77;;;26.90;;
3795;SDS011;1913;50.660;7.834;2023-04-29T04:08:43;58.03;;;26.40;;
3795;SDS011;1913;50.660;7.834;2023-04-29T04:11:09;58.20;;;27.17;;
3795;SDS011;1913;50.660;7.834;2023-04-29T04:13:35;53.43;;;26.77;;
3795;SDS011;1913;50.660;7.834;2023-04-29T04:16:01;56.30;;;28.47;;
3795;SDS011;1913;50.660;7.834;2023-04-29T04:18:27;66.60;;;31.73;;
3795;SDS011;1913;50.660;7.834;2023-04-29T04:20:53;63.57;;;29.73;;
3795;SDS011;1913;50.660;7.834;2023-04-29T04:23:18;67.63;;;30.70;;
3795;SDS011;1913;50.660;7.834;2023-04-29T04:25:44;70.37;;;32.70;;
3795;SDS011;1913;50.660;7.834;2023-04-29T04:28:10;71.60;;;33.00;;
3795;SDS011;1913;50.660;7.834;2023-04-29T04:30:36;68.93;;;34.00;;
3795;SDS011;1913;50.660;7.834;2023-04-29T04:33:01;78.43;;;32.90;;
3795;SDS011;1913;50.660;7.834;2023-04-29T04:35:28;79.77;;;34.53;;
3795;SDS011;1913;50.660;7.834;2023-04-29T04:37:53;83.50;;;35.37;;
3795;SDS011;1913;50.660;7.834;2023-04-29T04:40:19;76.70;;;33.83;;
3795;SDS011;1913;50.660;7.834;2023-04-29T04:42:44;78.23;;;34.23;;
3795;SDS011;1913;50.660;7.834;2023-04-29T04:45:10;80.60;;;33.90;;
3795;SDS011;1913;50.660;7.834;2023-04-29T04:47:36;82.30;;;35.17;;
3795;SDS011;1913;50.660;7.834;2023-04-29T04:50:02;73.17;;;33.90;;
3795;SDS011;1913;50.660;7.834;2023-04-29T04:52:28;74.73;;;34.03;;
3795;SDS011;1913;50.660;7.834;2023-04-29T04:54:54;70.90;;;33.30;;
3795;SDS011;1913;50.660;7.834;2023-04-29T04:57:19;84.37;;;34.27;;
3795;SDS011;1913;50.660;7.834;2023-04-29T04:59:45;84.10;;;34.47;;
3795;SDS011;1913;50.660;7.834;2023-04-29T05:02:10;80.33;;;33.80;;
3795;SDS011;1913;50.660;7.834;2023-04-29T05:04:36;93.20;;;35.07;;
3795;SDS011;1913;50.660;7.834;2023-04-29T05:07:01;81.17;;;34.90;;
3795;SDS011;1913;50.660;7.834;2023-04-29T05:09:27;79.47;;;32.37;;
3795;SDS011;1913;50.660;7.834;2023-04-29T05:11:53;75.77;;;33.60;;
3795;SDS011;1913;50.660;7.834;2023-04-29T05:14:18;88.40;;;34.50;;
3795;SDS011;1913;50.660;7.834;2023-04-29T05:16:43;93.90;;;35.27;;
3795;SDS011;1913;50.660;7.834;2023-04-29T05:19:10;81.00;;;33.30;;
3795;SDS011;1913;50.660;7.834;2023-04-29T05:21:36;91.23;;;35.50;;
3795;SDS011;1913;50.660;7.834;2023-04-29T05:24:02;91.50;;;36.07;;
3795;SDS011;1913;50.660;7.834;2023-04-29T05:26:28;97.43;;;34.83;;
3795;SDS011;1913;50.660;7.834;2023-04-29T05:28:53;96.60;;;36.93;;
3795;SDS011;1913;50.660;7.834;2023-04-29T05:31:19;95.60;;;35.00;;
3795;SDS011;1913;50.660;7.834;2023-04-29T05:33:45;79.97;;;32.03;;
3795;SDS011;1913;50.660;7.834;2023-04-29T05:36:10;79.70;;;32.13;;
3795;SDS011;1913;50.660;7.834;2023-04-29T05:38:36;99.57;;;34.37;;
3795;SDS011;1913;50.660;7.834;2023-04-29T05:41:02;87.03;;;33.73;;
3795;SDS011;1913;50.660;7.834;2023-04-29T05:43:28;86.30;;;34.57;;
3795;SDS011;1913;50.660;7.834;2023-04-29T05:45:53;85.90;;;33.57;;
3795;SDS011;1913;50.660;7.834;2023-04-29T05:48:20;91.73;;;34.73;;
3795;SDS011;1913;50.660;7.834;2023-04-29T05:50:46;90.13;;;34.30;;
3795;SDS011;1913;50.660;7.834;2023-04-29T05:53:12;72.77;;;29.13;;
3795;SDS011;1913;50.660;7.834;2023-04-29T05:55:38;94.67;;;31.47;;
3795;SDS011;1913;50.660;7.834;2023-04-29T05:58:04;62.57;;;26.70;;
3795;SDS011;1913;50.660;7.834;2023-04-29T06:00:29;70.40;;;28.07;;
3795;SDS011;1913;50.660;7.834;2023-04-29T06:02:55;74.03;;;28.53;;
3795;SDS011;1913;50.660;7.834;2023-04-29T06:05:21;65.17;;;26.00;;
3795;SDS011;1913;50.660;7.834;2023-04-29T06:07:47;83.40;;;29.40;;
3795;SDS011;1913;50.660;7.834;2023-04-29T06:10:12;86.87;;;32.03;;
3795;SDS011;1913;50.660;7.834;2023-04-29T06:12:38;86.83;;;32.57;;
3795;SDS011;1913;50.660;7.834;2023-04-29T06:15:04;99.30;;;34.23;;
3795;SDS011;1913;50.660;7.834;2023-04-29T06:17:29;105.33;;;35.30;;
3795;SDS011;1913;50.660;7.834;2023-04-29T06:19:55;112.77;;;37.17;;
3795;SDS011;1913;50.660;7.834;2023-04-29T06:22:20;87.00;;;32.17;;
3795;SDS011;1913;50.660;7.834;2023-04-29T06:24:46;85.90;;;33.20;;
3795;SDS011;1913;50.660;7.834;2023-04-29T06:27:14;95.20;;;33.47;;
3795;SDS011;1913;50.660;7.834;2023-04-29T06:29:39;105.40;;;34.73;;
3795;SDS011;1913;50.660;7.834;2023-04-29T06:32:05;97.70;;;35.00;;
3795;SDS011;1913;50.660;7.834;2023-04-29T06:34:30;80.23;;;32.27;;
3795;SDS011;1913;50.660;7.834;2023-04-29T06:36:56;80.93;;;33.03;;
3795;SDS011;1913;50.660;7.834;2023-04-29T06:39:21;94.53;;;32.80;;
3795;SDS011;1913;50.660;7.834;2023-04-29T06:41:47;92.33;;;33.30;;
3795;SDS011;1913;50.660;7.834;2023-04-29T06:44:12;83.93;;;32.07;;
3795;SDS011;1913;50.660;7.834;2023-04-29T06:46:39;77.00;;;29.97;;
3795;SDS011;1913;50.660;7.834;2023-04-29T06:49:04;71.70;;;31.17;;
3795;SDS011;1913;50.660;7.834;2023-04-29T06:51:31;77.67;;;31.80;;
3795;SDS011;1913;50.660;7.834;2023-04-29T06:53:56;73.00;;;29.67;;
3795;SDS011;1913;50.660;7.834;2023-04-29T06:56:21;55.13;;;25.00;;
3795;SDS011;1913;50.660;7.834;2023-04-29T06:58:47;58.67;;;26.83;;
3795;SDS011;1913;50.660;7.834;2023-04-29T07:01:13;58.93;;;26.63;;
3795;SDS011;1913;50.660;7.834;2023-04-29T07:03:38;65.40;;;26.50;;
3795;SDS011;1913;50.660;7.834;2023-04-29T07:06:04;60.83;;;26.57;;
3795;SDS011;1913;50.660;7.834;2023-04-29T07:08:30;58.03;;;24.67;;
3795;SDS011;1913;50.660;7.834;2023-04-29T07:10:57;61.80;;;25.57;;
3795;SDS011;1913;50.660;7.834;2023-04-29T07:13:23;62.83;;;26.10;;
3795;SDS011;1913;50.660;7.834;2023-04-29T07:15:49;76.50;;;26.97;;
3795;SDS011;1913;50.660;7.834;2023-04-29T07:18:18;74.57;;;27.57;;
3795;SDS011;1913;50.660;7.834;2023-04-29T07:20:44;65.23;;;25.93;;
3795;SDS011;1913;50.660;7.834;2023-04-29T07:23:11;51.33;;;23.80;;
3795;SDS011;1913;50.660;7.834;2023-04-29T07:25:37;57.87;;;24.97;;
3795;SDS011;1913;50.660;7.834;2023-04-29T07:28:02;48.30;;;21.63;;
3795;SDS011;1913;50.660;7.834;2023-04-29T07:30:28;41.97;;;21.60;;
3795;SDS011;1913;50.660;7.834;2023-04-29T07:32:54;44.63;;;20.67;;
3795;SDS011;1913;50.660;7.834;2023-04-29T07:35:19;36.60;;;18.70;;
3795;SDS011;1913;50.660;7.834;2023-04-29T07:37:45;39.53;;;19.50;;
3795;SDS011;1913;50.660;7.834;2023-04-29T07:40:10;38.00;;;19.27;;
3795;SDS011;1913;50.660;7.834;2023-04-29T07:42:36;41.67;;;21.27;;
3795;SDS011;1913;50.660;7.834;2023-04-29T07:45:01;34.43;;;16.33;;
3795;SDS011;1913;50.660;7.834;2023-04-29T07:47:27;25.50;;;15.60;;
3795;SDS011;1913;50.660;7.834;2023-04-29T07:49:52;42.77;;;19.60;;
3795;SDS011;1913;50.660;7.834;2023-04-29T07:52:18;33.07;;;17.50;;
3795;SDS011;1913;50.660;7.834;2023-04-29T07:54:43;25.17;;;14.20;;
3795;SDS011;1913;50.660;7.834;2023-04-29T07:57:09;28.47;;;15.27;;
3795;SDS011;1913;50.660;7.834;2023-04-29T07:59:34;29.47;;;16.27;;
3795;SDS011;1913;50.660;7.834;2023-04-29T08:01:59;28.53;;;16.00;;
3795;SDS011;1913;50.660;7.834;2023-04-29T08:04:25;30.33;;;17.17;;
3795;SDS011;1913;50.660;7.834;2023-04-29T08:06:50;35.27;;;17.93;;
3795;SDS011;1913;50.660;7.834;2023-04-29T08:09:16;36.53;;;16.70;;
3795;SDS011;1913;50.660;7.834;2023-04-29T08:11:42;31.50;;;17.50;;
3795;SDS011;1913;50.660;7.834;2023-04-29T08:14:08;31.07;;;16.70;;
3795;SDS011;1913;50.660;7.834;2023-04-29T08:16:33;34.43;;;17.37;;
3795;SDS011;1913;50.660;7.834;2023-04-29T08:19:02;35.60;;;17.70;;
3795;SDS011;1913;50.660;7.834;2023-04-29T08:21:27;27.63;;;15.60;;
3795;SDS011;1913;50.660;7.834;2023-04-29T08:23:56;27.93;;;15.47;;
3795;SDS011;1913;50.660;7.834;2023-04-29T08:26:21;22.63;;;14.47;;
3795;SDS011;1913;50.660;7.834;2023-04-29T08:28:49;24.73;;;14.63;;
3795;SDS011;1913;50.660;7.834;2023-04-29T08:31:15;26.77;;;15.60;;
3795;SDS011;1913;50.660;7.834;2023-04-29T08:33:42;30.70;;;16.20;;
3795;SDS011;1913;50.660;7.834;2023-04-29T08:36:08;27.57;;;16.27;;
3795;SDS011;1913;50.660;7.834;2023-04-29T08:38:33;24.07;;;14.40;;
3795;SDS011;1913;50.660;7.834;2023-04-29T08:40:59;26.63;;;16.30;;
3795;SDS011;1913;50.660;7.834;2023-04-29T08:43:28;26.87;;;16.60;;
3795;SDS011;1913;50.660;7.834;2023-04-29T08:45:55;26.17;;;16.50;;
3795;SDS011;1913;50.660;7.834;2023-04-29T08:48:22;28.37;;;16.80;;
3795;SDS011;1913;50.660;7.834;2023-04-29T08:50:48;29.20;;;16.87;;
3795;SDS011;1913;50.660;7.834;2023-04-29T08:53:13;25.97;;;16.50;;
3795;SDS011;1913;50.660;7.834;2023-04-29T08:55:41;22.00;;;14.90;;
3795;SDS011;1913;50.660;7.834;2023-04-29T08:58:14;28.20;;;16.43;;
3795;SDS011;1913;50.660;7.834;2023-04-29T09:00:43;24.70;;;16.87;;
3795;SDS011;1913;50.660;7.834;2023-04-29T09:05:51;22.03;;;14.43;;
3795;SDS011;1913;50.660;7.834;2023-04-29T09:08:22;22.63;;;14.93;;
3795;SDS011;1913;50.660;7.834;2023-04-29T09:10:51;20.30;;;13.20;;
3795;SDS011;1913;50.660;7.834;2023-04-29T09:13:35;19.80;;;13.23;;
3795;SDS011;1913;50.660;7.834;2023-04-29T09:16:01;19.17;;;13.20;;
3795;SDS011;1913;50.660;7.834;2023-04-29T09:21:11;16.60;;;12.17;;
3795;SDS011;1913;50.660;7.834;2023-04-29T09:23:49;15.50;;;11.07;;
3795;SDS011;1913;50.660;7.834;2023-04-29T09:26:16;19.60;;;12.13;;
3795;SDS011;1913;50.660;7.834;2023-04-29T09:28:41;15.93;;;10.50;;
3795;SDS011;1913;50.660;7.834;2023-04-29T09:31:09;15.70;;;11.40;;
3795;SDS011;1913;50.660;7.834;2023-04-29T09:33:49;15.30;;;9.90;;
3795;SDS011;1913;50.660;7.834;2023-04-29T09:39:13;14.40;;;10.30;;
3795;SDS011;1913;50.660;7.834;2023-04-29T09:44:07;15.73;;;10.20;;
3795;SDS011;1913;50.660;7.834;2023-04-29T09:46:34;15.40;;;11.30;;
3795;SDS011;1913;50.660;7.834;2023-04-29T09:49:05;12.97;;;10.07;;
3795;SDS011;1913;50.660;7.834;2023-04-29T09:51:58;12.70;;;9.70;;
3795;SDS011;1913;50.660;7.834;2023-04-29T09:54:25;12.07;;;9.50;;
3795;SDS011;1913;50.660;7.834;2023-04-29T09:56:52;13.67;;;10.13;;
3795;SDS011;1913;50.660;7.834;2023-04-29T09:59:20;14.50;;;10.70;;
3795;SDS011;1913;50.660;7.834;2023-04-29T10:01:48;13.77;;;10.07;;
3795;SDS011;1913;50.660;7.834;2023-04-29T10:04:19;16.30;;;11.40;;
3795;SDS011;1913;50.660;7.834;2023-04-29T10:06:47;15.43;;;11.07;;
3795;SDS011;1913;50.660;7.834;2023-04-29T10:09:16;15.47;;;10.90;;
3795;SDS011;1913;50.660;7.834;2023-04-29T10:11:47;14.00;;;10.20;;
3795;SDS011;1913;50.660;7.834;2023-04-29T10:14:15;13.70;;;11.00;;
3795;SDS011;1913;50.660;7.834;2023-04-29T10:16:46;15.17;;;10.93;;
3795;SDS011;1913;50.660;7.834;2023-04-29T10:19:23;14.90;;;9.97;;
3795;SDS011;1913;50.660;7.834;2023-04-29T10:21:51;15.27;;;10.60;;
3795;SDS011;1913;50.660;7.834;2023-04-29T10:24:19;17.13;;;11.47;;
3795;SDS011;1913;50.660;7.834;2023-04-29T10:26:47;19.00;;;12.80;;
3795;SDS011;1913;50.660;7.834;2023-04-29T10:29:15;21.80;;;14.30;;
3795;SDS011;1913;50.660;7.834;2023-04-29T10:31:42;25.80;;;13.67;;
3795;SDS011;1913;50.660;7.834;2023-04-29T10:34:08;22.90;;;13.90;;
3795;SDS011;1913;50.660;7.834;2023-04-29T10:36:35;28.40;;;16.63;;
3795;SDS011;1913;50.660;7.834;2023-04-29T10:39:02;26.63;;;15.63;;
3795;SDS011;1913;50.660;7.834;2023-04-29T10:41:33;24.63;;;14.27;;
3795;SDS011;1913;50.660;7.834;2023-04-29T10:44:09;25.77;;;15.63;;
3795;SDS011;1913;50.660;7.834;2023-04-29T10:46:35;22.97;;;14.20;;
3795;SDS011;1913;50.660;7.834;2023-04-29T10:49:02;24.90;;;15.43;;
3795;SDS011;1913;50.660;7.834;2023-04-29T10:56:35;24.50;;;15.03;;
3795;SDS011;1913;50.660;7.834;2023-04-29T10:59:05;26.10;;;15.00;;
3795;SDS011;1913;50.660;7.834;2023-04-29T11:04:09;22.57;;;15.10;;
3795;SDS011;1913;50.660;7.834;2023-04-29T11:09:01;22.43;;;14.50;;
3795;SDS011;1913;50.660;7.834;2023-04-29T11:14:09;23.93;;;15.37;;
3795;SDS011;1913;50.660;7.834;2023-04-29T11:16:37;24.33;;;15.20;;
3795;SDS011;1913;50.660;7.834;2023-04-29T11:19:03;28.73;;;17.43;;
3795;SDS011;1913;50.660;7.834;2023-04-29T11:21:29;26.43;;;16.00;;
3795;SDS011;1913;50.660;7.834;2023-04-29T11:23:56;25.00;;;16.17;;
3795;SDS011;1913;50.660;7.834;2023-04-29T11:26:22;24.90;;;16.30;;
3795;SDS011;1913;50.660;7.834;2023-04-29T11:28:48;30.17;;;17.47;;
3795;SDS011;1913;50.660;7.834;2023-04-29T11:31:16;28.67;;;18.07;;
3795;SDS011;1913;50.660;7.834;2023-04-29T11:33:41;26.97;;;16.77;;
3795;SDS011;1913;50.660;7.834;2023-04-29T11:36:08;33.37;;;19.30;;
3795;SDS011;1913;50.660;7.834;2023-04-29T11:38:35;31.33;;;19.23;;
3795;SDS011;1913;50.660;7.834;2023-04-29T11:41:04;30.70;;;17.60;;
3795;SDS011;1913;50.660;7.834;2023-04-29T11:43:30;31.80;;;19.10;;
3795;SDS011;1913;50.660;7.834;2023-04-29T11:45:55;34.27;;;19.63;;
3795;SDS011;1913;50.660;7.834;2023-04-29T11:48:23;28.53;;;17.77;;
3795;SDS011;1913;50.660;7.834;2023-04-29T11:50:53;35.33;;;19.50;;
3795;SDS011;1913;50.660;7.834;2023-04-29T11:53:23;35.50;;;20.40;;
3795;SDS011;1913;50.660;7.834;2023-04-29T11:55:54;32.10;;;19.37;;
3795;SDS011;1913;50.660;7.834;2023-04-29T11:58:20;36.30;;;21.87;;
3795;SDS011;1913;50.660;7.834;2023-04-29T12:00:46;41.90;;;23.40;;
3795;SDS011;1913;50.660;7.834;2023-04-29T12:03:12;42.40;;;23.27;;
3795;SDS011;1913;50.660;7.834;2023-04-29T12:05:44;44.00;;;24.83;;
3795;SDS011;1913;50.660;7.834;2023-04-29T12:08:19;48.80;;;24.70;;
3795;SDS011;1913;50.660;7.834;2023-04-29T12:10:48;45.90;;;25.77;;
3795;SDS011;1913;50.660;7.834;2023-04-29T12:13:14;47.63;;;26.30;;
3795;SDS011;1913;50.660;7.834;2023-04-29T12:15:41;51.17;;;26.90;;
3795;SDS011;1913;50.660;7.834;2023-04-29T12:18:07;47.37;;;25.93;;
3795;SDS011;1913;50.660;7.834;2023-04-29T12:20:33;47.03;;;26.37;;
3795;SDS011;1913;50.660;7.834;2023-04-29T12:25:37;51.83;;;26.53;;
3795;SDS011;1913;50.660;7.834;2023-04-29T12:28:03;48.27;;;25.17;;
3795;SDS011;1913;50.660;7.834;2023-04-29T12:30:29;49.77;;;24.83;;
3795;SDS011;1913;50.660;7.834;2023-04-29T12:32:54;44.10;;;24.50;;
3795;SDS011;1913;50.660;7.834;2023-04-29T12:35:20;42.30;;;24.10;;
3795;SDS011;1913;50.660;7.834;2023-04-29T12:37:51;41.30;;;22.40;;
3795;SDS011;1913;50.660;7.834;2023-04-29T12:40:17;40.93;;;23.87;;
3795;SDS011;1913;50.660;7.834;2023-04-29T12:42:44;41.43;;;23.20;;
3795;SDS011;1913;50.660;7.834;2023-04-29T12:45:30;34.47;;;21.23;;
3795;SDS011;1913;50.660;7.834;2023-04-29T12:48:02;40.97;;;20.80;;
3795;SDS011;1913;50.660;7.834;2023-04-29T12:50:33;31.17;;;18.30;;
3795;SDS011;1913;50.660;7.834;2023-04-29T12:53:00;35.27;;;19.33;;
3795;SDS011;1913;50.660;7.834;2023-04-29T12:55:27;31.87;;;17.50;;
3795;SDS011;1913;50.660;7.834;2023-04-29T12:57:53;27.27;;;16.40;;
3795;SDS011;1913;50.660;7.834;2023-04-29T13:00:19;25.67;;;16.63;;
3795;SDS011;1913;50.660;7.834;2023-04-29T13:02:45;31.83;;;18.30;;
3795;SDS011;1913;50.660;7.834;2023-04-29T13:05:11;27.97;;;16.70;;
3795;SDS011;1913;50.660;7.834;2023-04-29T13:07:37;26.80;;;15.57;;
3795;SDS011;1913;50.660;7.834;2023-04-29T13:10:03;28.67;;;17.60;;
3795;SDS011;1913;50.660;7.834;2023-04-29T13:12:31;29.03;;;17.13;;
3795;SDS011;1913;50.660;7.834;2023-04-29T13:14:59;26.57;;;15.97;;
3795;SDS011;1913;50.660;7.834;2023-04-29T13:17:24;26.40;;;15.97;;
3795;SDS011;1913;50.660;7.834;2023-04-29T13:19:50;28.93;;;15.67;;
3795;SDS011;1913;50.660;7.834;2023-04-29T13:22:15;23.70;;;15.90;;
3795;SDS011;1913;50.660;7.834;2023-04-29T13:24:41;26.47;;;15.80;;
3795;SDS011;1913;50.660;7.834;2023-04-29T13:27:06;28.97;;;15.33;;
3795;SDS011;1913;50.660;7.834;2023-04-29T13:29:32;26.63;;;15.67;;
3795;SDS011;1913;50.660;7.834;2023-04-29T13:31:57;24.83;;;15.10;;
3795;SDS011;1913;50.660;7.834;2023-04-29T13:34:23;23.80;;;15.93;;
3795;SDS011;1913;50.660;7.834;2023-04-29T13:36:48;27.10;;;15.20;;
3795;SDS011;1913;50.660;7.834;2023-04-29T13:39:13;26.30;;;15.10;;
3795;SDS011;1913;50.660;7.834;2023-04-29T13:41:42;24.67;;;15.17;;
3795;SDS011;1913;50.660;7.834;2023-04-29T13:44:07;24.00;;;15.63;;
3795;SDS011;1913;50.660;7.834;2023-04-29T13:46:33;24.33;;;14.07;;
3795;SDS011;1913;50.660;7.834;2023-04-29T13:48:58;25.00;;;13.87;;
3795;SDS011;1913;50.660;7.834;2023-04-29T13:51:23;21.00;;;13.50;;
3795;SDS011;1913;50.660;7.834;2023-04-29T13:53:49;24.70;;;14.90;;
3795;SDS011;1913;50.660;7.834;2023-04-29T13:56:14;27.60;;;16.53;;
3795;SDS011;1913;50.660;7.834;2023-04-29T13:58:40;24.17;;;14.87;;
3795;SDS011;1913;50.660;7.834;2023-04-29T14:01:06;19.27;;;13.53;;
3795;SDS011;1913;50.660;7.834;2023-04-29T14:03:32;21.10;;;13.03;;
3795;SDS011;1913;50.660;7.834;2023-04-29T14:05:57;21.40;;;14.27;;
3795;SDS011;1913;50.660;7.834;2023-04-29T14:08:23;22.03;;;13.53;;
3795;SDS011;1913;50.660;7.834;2023-04-29T14:10:48;21.07;;;13.80;;
3795;SDS011;1913;50.660;7.834;2023-04-29T14:13:13;20.83;;;13.40;;
3795;SDS011;1913;50.660;7.834;2023-04-29T14:15:39;21.63;;;13.00;;
3795;SDS011;1913;50.660;7.834;2023-04-29T14:18:05;22.20;;;13.20;;
3795;SDS011;1913;50.660;7.834;2023-04-29T14:20:32;19.43;;;12.43;;
3795;SDS011;1913;50.660;7.834;2023-04-29T14:22:57;22.57;;;13.70;;
3795;SDS011;1913;50.660;7.834;2023-04-29T14:25:23;21.80;;;13.70;;
3795;SDS011;1913;50.660;7.834;2023-04-29T14:27:48;18.90;;;12.70;;
3795;SDS011;1913;50.660;7.834;2023-04-29T14:30:13;21.57;;;13.97;;
3795;SDS011;1913;50.660;7.834;2023-04-29T14:32:39;21.80;;;12.90;;
3795;SDS011;1913;50.660;7.834;2023-04-29T14:35:04;19.67;;;13.93;;
3795;SDS011;1913;50.660;7.834;2023-04-29T14:37:30;16.57;;;11.50;;
3795;SDS011;1913;50.660;7.834;2023-04-29T14:39:56;19.33;;;13.13;;
3795;SDS011;1913;50.660;7.834;2023-04-29T14:42:21;20.90;;;13.50;;
3795;SDS011;1913;50.660;7.834;2023-04-29T14:44:46;20.60;;;13.40;;
3795;SDS011;1913;50.660;7.834;2023-04-29T14:47:12;19.50;;;12.27;;
3795;SDS011;1913;50.660;7.834;2023-04-29T14:49:37;19.20;;;13.23;;
3795;SDS011;1913;50.660;7.834;2023-04-29T14:52:03;19.27;;;12.63;;
3795;SDS011;1913;50.660;7.834;2023-04-29T14:54:28;17.37;;;12.77;;
3795;SDS011;1913;50.660;7.834;2023-04-29T14:56:54;18.20;;;12.10;;
3795;SDS011;1913;50.660;7.834;2023-04-29T14:59:19;19.43;;;12.30;;
3795;SDS011;1913;50.660;7.834;2023-04-29T15:01:45;17.50;;;11.70;;
3795;SDS011;1913;50.660;7.834;2023-04-29T15:04:10;20.40;;;12.03;;
3795;SDS011;1913;50.660;7.834;2023-04-29T15:06:36;18.87;;;12.90;;
3795;SDS011;1913;50.660;7.834;2023-04-29T15:09:02;21.97;;;12.67;;
3795;SDS011;1913;50.660;7.834;2023-04-29T15:11:29;17.80;;;11.97;;
3795;SDS011;1913;50.660;7.834;2023-04-29T15:13:54;19.70;;;12.80;;
3795;SDS011;1913;50.660;7.834;2023-04-29T15:16:20;18.37;;;12.40;;
3795;SDS011;1913;50.660;7.834;2023-04-29T15:18:46;18.03;;;12.47;;